Time;durP1;ratioP1;P1;durP2;ratioP2;P2;SDS_P1;SDS_P2;PMS_P1;PMS_P2;Temp;Humidity;BMP_temperature;BMP_pressure;BME280_temperature;BME280_humidity;BME280_pressure;Samples;Min_cycle;Max_cycle;Signal;HPM_P1;HPM_P2
2022/12/14 00:01:19;;;;;;;21.83;11.47;;;;;;;-3.18;80.20;100397.66;5019400;28;20142;-58
2022/12/14 00:03:45;;;;;;;23.60;11.30;;;;;;;-3.17;80.06;100391.53;5019346;28;20555;-57
2022/12/14 00:06:16;;;;;;;21.93;11.40;;;;;;;-3.15;80.13;100378.50;5020669;28;20041;-58
2022/12/14 00:08:42;;;;;;;21.47;10.97;;;;;;;-3.13;80.79;100380.09;5024586;28;20034;-56
2022/12/14 00:11:08;;;;;;;23.00;11.43;;;;;;;-3.14;79.98;100370.63;5030747;28;20493;-57
2022/12/14 00:13:34;;;;;;;21.93;10.83;;;;;;;-3.13;80.07;100363.66;5018749;28;20147;-58
2022/12/14 00:16:08;;;;;;;21.50;10.90;;;;;;;-3.12;79.50;100363.59;5024538;28;20033;-58
2022/12/14 00:18:33;;;;;;;20.30;10.57;;;;;;;-3.13;79.72;100356.72;5017521;28;20555;-57
2022/12/14 00:21:17;;;;;;;21.23;10.40;;;;;;;-3.12;78.84;100363.59;5026583;28;20062;-58
2022/12/14 00:23:44;;;;;;;21.43;10.97;;;;;;;-3.13;79.35;100361.91;5018639;28;20168;-57
2022/12/14 00:26:15;;;;;;;20.40;10.40;;;;;;;-3.14;79.05;100365.44;5020468;28;20139;-58
2022/12/14 00:28:42;;;;;;;21.53;10.63;;;;;;;-3.13;79.12;100361.91;5023310;28;20077;-57
2022/12/14 00:31:07;;;;;;;20.67;10.37;;;;;;;-3.17;78.45;100365.59;5022145;28;20036;-57
2022/12/14 00:33:34;;;;;;;21.60;10.90;;;;;;;-3.17;78.99;100365.59;5029503;28;20033;-57
2022/12/14 00:36:00;;;;;;;22.07;10.70;;;;;;;-3.16;78.53;100359.47;5024062;28;20033;-58
2022/12/14 00:38:25;;;;;;;21.37;10.57;;;;;;;-3.17;78.50;100354.38;5018157;28;20212;-58
2022/12/14 00:40:51;;;;;;;19.57;10.37;;;;;;;-3.18;78.39;100353.56;5021080;28;20475;-59
2022/12/14 00:43:16;;;;;;;20.97;10.47;;;;;;;-3.19;78.58;100346.69;5020322;28;20052;-57
2022/12/14 00:45:45;;;;;;;21.33;10.87;;;;;;;-3.19;78.32;100343.25;5017901;28;20444;-57
2022/12/14 00:48:11;;;;;;;21.23;10.53;;;;;;;-3.27;78.26;100328.13;5016491;28;20465;-56
2022/12/14 00:50:37;;;;;;;20.87;10.80;;;;;;;-3.25;78.55;100328.88;5021585;28;20062;-57
2022/12/14 00:53:02;;;;;;;19.13;10.40;;;;;;;-3.26;79.19;100325.44;5023547;28;20370;-56
2022/12/14 00:55:27;;;;;;;20.37;11.13;;;;;;;-3.28;78.56;100323.84;5019920;28;20408;-58
2022/12/14 00:57:53;;;;;;;19.77;9.93;;;;;;;-3.29;79.06;100320.44;5023956;28;20025;-58
2022/12/14 01:00:18;;;;;;;21.83;10.97;;;;;;;-3.32;78.98;100317.19;5016858;28;20026;-57
2022/12/14 01:02:43;;;;;;;21.87;10.83;;;;;;;-3.30;79.52;100320.53;5016619;28;20037;-57
2022/12/14 01:05:09;;;;;;;22.83;10.67;;;;;;;-3.32;79.16;100325.78;5017408;28;20064;-59
2022/12/14 01:07:34;;;;;;;20.73;10.20;;;;;;;-3.36;78.83;100326.03;5020454;28;20034;-57
2022/12/14 01:10:00;;;;;;;22.10;11.10;;;;;;;-3.38;79.11;100319.19;5014356;28;20029;-57
2022/12/14 01:12:25;;;;;;;23.17;11.00;;;;;;;-3.42;79.22;100315.09;5017661;28;20533;-57
2022/12/14 01:14:50;;;;;;;21.07;11.43;;;;;;;-3.48;79.05;100299.88;5020075;28;20041;-56
2022/12/14 01:17:15;;;;;;;20.43;10.47;;;;;;;-3.49;79.30;100303.38;5027597;28;20374;-58
2022/12/14 01:19:41;;;;;;;20.83;10.43;;;;;;;-3.50;79.62;100306.91;5019031;28;20025;-57
2022/12/14 01:22:06;;;;;;;22.67;11.07;;;;;;;-3.55;79.15;100301.94;5027332;28;20040;-56
2022/12/14 01:24:31;;;;;;;22.47;10.70;;;;;;;-3.54;79.38;100302.78;5029596;28;20051;-57
2022/12/14 01:26:57;;;;;;;21.07;10.97;;;;;;;-3.53;79.55;100296.69;5020487;28;20021;-57
2022/12/14 01:29:22;;;;;;;21.90;10.33;;;;;;;-3.54;79.36;100300.19;5019002;28;20030;-56
2022/12/14 01:31:48;;;;;;;19.43;10.47;;;;;;;-3.55;79.04;100296.75;5028754;28;20029;-59
2022/12/14 01:34:13;;;;;;;20.83;10.53;;;;;;;-3.58;78.83;100296.09;5024289;28;20022;-58
2022/12/14 01:36:38;;;;;;;22.90;11.30;;;;;;;-3.58;79.75;100294.34;5025977;28;20424;-60
2022/12/14 01:39:08;;;;;;;21.63;10.90;;;;;;;-3.59;79.21;100286.66;5028488;28;20021;-57
2022/12/14 01:41:41;;;;;;;21.73;10.80;;;;;;;-3.58;79.53;100298.69;5028386;28;20064;-57
2022/12/14 01:44:06;;;;;;;20.97;10.67;;;;;;;-3.60;79.02;100298.75;5027359;28;20050;-56
2022/12/14 01:46:38;;;;;;;21.77;10.80;;;;;;;-3.60;79.13;100295.34;5030224;28;20029;-57
2022/12/14 01:49:11;;;;;;;22.15;10.88;;;;;;;-3.57;79.23;100301.19;5030012;28;20022;-56
2022/12/14 01:51:39;;;;;;;21.58;10.98;;;;;;;-3.57;79.34;100305.53;5031256;28;20038;-56
2022/12/14 01:54:08;;;;;;;22.53;10.30;;;;;;;-3.60;79.30;100303.94;5024906;28;20030;-57
2022/12/14 01:56:37;;;;;;;20.23;10.97;;;;;;;-3.61;78.99;100293.69;5030160;28;20034;-58
2022/12/14 01:59:10;;;;;;;22.80;10.33;;;;;;;-3.64;78.92;100294.69;5021821;28;20029;-57
2022/12/14 02:01:35;;;;;;;22.20;10.63;;;;;;;-3.63;79.49;100290.31;5021917;28;20485;-59
2022/12/14 02:04:01;;;;;;;20.20;10.23;;;;;;;-3.65;79.29;100280.88;5026184;28;20088;-57
2022/12/14 02:06:34;;;;;;;22.53;10.33;;;;;;;-3.67;79.23;100280.13;5026168;28;20017;-57
2022/12/14 02:09:03;;;;;;;18.90;9.90;;;;;;;-3.68;79.59;100275.88;5023344;28;20083;-56
2022/12/14 02:11:45;;;;;;;19.87;10.07;;;;;;;-3.63;79.50;100278.22;5026813;28;20080;-57
2022/12/14 02:14:10;;;;;;;20.93;9.73;;;;;;;-3.64;79.00;100268.75;5021338;28;20044;-57
2022/12/14 02:16:37;;;;;;;22.13;10.57;;;;;;;-3.66;78.83;100271.44;5027281;28;20041;-56
2022/12/14 02:19:02;;;;;;;21.13;11.03;;;;;;;-3.65;79.52;100273.09;5013927;28;20037;-57
2022/12/14 02:21:41;;;;;;;19.50;10.10;;;;;;;-3.66;79.07;100271.44;5022856;28;20037;-55
2022/12/14 02:24:35;;;;;;;21.00;10.13;;;;;;;-3.66;78.79;100268.00;5020586;28;20116;-56
2022/12/14 02:27:08;;;;;;;18.80;9.93;;;;;;;-3.68;79.39;100265.50;5031224;28;20381;-57
2022/12/14 02:30:01;;;;;;;21.30;10.50;;;;;;;-3.67;79.73;100269.75;5024837;28;20105;-57
2022/12/14 02:32:45;;;;;;;24.25;11.18;;;;;;;-3.69;79.31;100263.81;5022801;28;20061;-56
2022/12/14 02:35:36;;;;;;;20.77;10.67;;;;;;;-3.71;78.96;100263.06;5023785;28;20021;-57
2022/12/14 02:38:16;;;;;;;21.10;9.93;;;;;;;-3.74;79.29;100258.06;5024641;28;20036;-57
2022/12/14 02:41:00;;;;;;;22.67;10.60;;;;;;;-3.75;79.26;100261.56;5021539;28;20041;-57
2022/12/14 02:43:35;;;;;;;25.13;10.83;;;;;;;-3.78;79.36;100262.59;5024481;28;20497;-57
2022/12/14 02:46:14;;;;;;;23.10;10.53;;;;;;;-3.78;79.69;100261.72;5029633;28;20868;-57
2022/12/14 02:48:47;;;;;;;21.10;10.87;;;;;;;-3.82;79.60;100252.44;5029737;28;20029;-57
2022/12/14 02:51:23;;;;;;;20.93;10.53;;;;;;;-3.76;79.43;100253.88;5025720;28;20037;-56
2022/12/14 02:54:12;;;;;;;21.80;10.73;;;;;;;-3.77;79.77;100253.03;5029241;28;20041;-57
2022/12/14 02:56:47;;;;;;;20.87;11.07;;;;;;;-3.78;80.19;100249.63;5021386;28;20123;-57
2022/12/14 02:59:15;;;;;;;20.90;10.50;;;;;;;-3.79;79.92;100249.72;5017509;28;20025;-59
2022/12/14 03:01:43;;;;;;;21.87;10.20;;;;;;;-3.83;79.97;100243.00;5026385;28;20025;-57
2022/12/14 03:04:09;;;;;;;20.07;10.30;;;;;;;-3.76;80.06;100248.69;5023895;28;20513;-57
2022/12/14 03:06:35;;;;;;;21.37;10.87;;;;;;;-3.75;80.15;100255.56;5021960;28;20113;-57
2022/12/14 03:09:11;;;;;;;20.57;10.80;;;;;;;-3.74;80.47;100252.88;5022493;28;20116;-57
2022/12/14 03:12:10;;;;;;;21.67;10.77;;;;;;;-3.73;80.14;100254.56;5026565;28;20040;-56
2022/12/14 03:14:44;;;;;;;19.47;10.20;;;;;;;-3.71;79.83;100257.88;5019698;28;20042;-57
2022/12/14 03:17:15;;;;;;;21.33;10.83;;;;;;;-3.73;79.65;100254.56;5025958;28;20587;-58
2022/12/14 03:19:47;;;;;;;21.20;10.93;;;;;;;-3.75;79.90;100248.59;5021917;28;20588;-58
2022/12/14 03:22:24;;;;;;;21.33;10.67;;;;;;;-3.75;79.92;100238.22;5017806;28;20041;-56
2022/12/14 03:24:57;;;;;;;20.30;10.23;;;;;;;-3.73;80.03;100239.00;5015123;28;20116;-57
2022/12/14 03:27:24;;;;;;;;;;;;;;;-3.64;80.95;100237.66;5022931;28;20457;-56
2022/12/14 03:30:00;;;;;;;19.93;10.37;;;;;;;-3.71;80.04;100226.78;5021568;28;20257;-56
2022/12/14 03:32:28;;;;;;;19.17;9.73;;;;;;;-3.73;79.75;100218.28;5014837;28;20413;-57
2022/12/14 03:35:05;;;;;;;23.27;10.67;;;;;;;-3.73;79.37;100213.09;5024035;28;20030;-57
2022/12/14 03:37:33;;;;;;;22.50;10.67;;;;;;;-3.72;80.11;100204.38;5028117;28;20044;-56
2022/12/14 03:39:59;;;;;;;21.27;10.70;;;;;;;-3.71;80.21;100205.25;5019891;28;20053;-56
2022/12/14 03:42:49;;;;;;;20.67;10.80;;;;;;;-3.72;80.06;100204.38;5017317;28;20148;-57
2022/12/14 03:45:22;;;;;;;21.63;11.43;;;;;;;-3.70;79.89;100199.13;5026163;28;20468;-57
2022/12/14 03:47:56;;;;;;;20.30;10.83;;;;;;;-3.68;79.96;100200.72;5025334;28;20055;-57
2022/12/14 03:50:33;;;;;;;21.67;10.50;;;;;;;-3.76;79.67;100197.69;5022908;28;20120;-56
2022/12/14 03:53:13;;;;;;;21.27;11.10;;;;;;;-3.66;80.24;100208.38;5023048;28;20129;-58
2022/12/14 03:56:07;;;;;;;20.50;10.73;;;;;;;-3.62;79.95;100203.91;5017589;28;20034;-57
2022/12/14 03:58:36;;;;;;;18.40;9.87;;;;;;;-3.65;79.94;100202.31;5019871;28;20045;-57
2022/12/14 04:01:45;;;;;;;21.33;11.03;;;;;;;-3.61;80.03;100201.19;5015491;28;20485;-57
2022/12/14 04:04:24;;;;;;;22.10;11.10;;;;;;;-3.64;80.13;100191.00;5006700;28;20033;-57
2022/12/14 04:07:02;;;;;;;24.03;11.20;;;;;;;-3.68;80.10;100179.13;5015330;28;20346;-58
2022/12/14 04:09:37;;;;;;;22.13;11.53;;;;;;;-3.67;80.13;100181.66;5019784;28;20025;-57
2022/12/14 04:20:48;;;;;;;20.17;10.37;;;;;;;-3.67;79.91;100171.28;5023067;28;20059;-57
2022/12/14 04:26:03;;;;;;;22.90;10.87;;;;;;;-3.63;80.27;100161.56;5027827;28;20029;-57
2022/12/14 04:26:13;;;;;;;21.70;10.45;;;;;;;-3.62;80.38;100159.84;5019483;28;20489;-58
2022/12/14 04:29:55;;;;;;;21.33;10.70;;;;;;;-3.59;80.62;100157.06;5022694;28;20385;-57
2022/12/14 04:32:00;;;;;;;20.23;10.97;;;;;;;-3.59;81.10;100159.66;5023476;28;20123;-57
2022/12/14 04:34:28;;;;;;;22.20;11.80;;;;;;;-3.62;80.60;100155.47;5020692;28;20886;-57
2022/12/14 04:36:58;;;;;;;24.43;11.70;;;;;;;-3.61;80.58;100156.31;5022392;28;20054;-57
2022/12/14 04:39:40;;;;;;;22.77;11.50;;;;;;;-3.61;80.65;100149.34;5020496;28;20037;-57
2022/12/14 04:42:07;;;;;;;21.53;11.27;;;;;;;-3.63;80.84;100148.63;5029776;28;20073;-58
2022/12/14 04:44:39;;;;;;;21.53;11.10;;;;;;;-3.63;81.00;100145.19;5029049;28;20121;-57
2022/12/14 04:47:08;;;;;;;24.27;11.87;;;;;;;-3.64;81.07;100149.53;5022780;28;20041;-57
2022/12/14 04:49:46;;;;;;;20.77;11.17;;;;;;;-3.63;80.47;100145.19;5023519;28;20064;-57
2022/12/14 04:52:26;;;;;;;22.70;11.60;;;;;;;-3.67;80.38;100136.75;5027906;28;20029;-58
2022/12/14 04:54:57;;;;;;;22.17;11.57;;;;;;;-3.66;81.09;100146.19;5023804;28;20041;-57
2022/12/14 04:57:44;;;;;;;23.03;11.33;;;;;;;-3.70;81.08;100129.97;5027385;28;20046;-56
2022/12/14 05:00:10;;;;;;;23.00;11.60;;;;;;;-3.69;80.75;100139.41;5023935;28;20038;-58
2022/12/14 05:03:03;;;;;;;21.40;11.40;;;;;;;-3.67;80.76;100139.34;5026751;28;20494;-58
2022/12/14 05:05:46;;;;;;;23.80;11.57;;;;;;;-3.67;81.14;100128.97;5021953;28;20041;-57
2022/12/14 05:08:20;;;;;;;23.30;11.43;;;;;;;-3.67;81.10;100137.59;5027677;28;20041;-59
2022/12/14 05:11:06;;;;;;;23.33;11.27;;;;;;;-3.65;80.96;100138.34;5031791;28;20087;-57
2022/12/14 05:13:41;;;;;;;24.77;11.53;;;;;;;-3.66;80.48;100135.81;5021162;28;20041;-57
2022/12/14 05:16:07;;;;;;;23.27;11.53;;;;;;;-3.70;80.40;100129.97;5024952;28;20030;-58
2022/12/14 05:18:36;;;;;;;21.73;11.87;;;;;;;-3.72;80.39;100125.81;5030877;28;20402;-58
2022/12/14 05:21:01;;;;;;;22.70;11.47;;;;;;;-3.71;80.79;100123.13;5029851;28;20030;-58
2022/12/14 05:23:26;;;;;;;23.10;11.53;;;;;;;-3.69;80.66;100125.66;5018776;28;20529;-57
2022/12/14 05:25:51;;;;;;;23.23;11.80;;;;;;;-3.68;81.03;100117.78;5033249;28;20040;-57
2022/12/14 05:28:17;;;;;;;25.03;11.40;;;;;;;-3.66;80.98;100125.44;5030714;28;20488;-57
2022/12/14 05:30:42;;;;;;;22.33;11.40;;;;;;;-3.66;80.80;100121.13;5024456;28;20415;-57
2022/12/14 05:33:16;;;;;;;23.37;11.50;;;;;;;-3.67;80.93;100118.59;5024192;28;20026;-57
2022/12/14 05:35:42;;;;;;;21.50;10.73;;;;;;;-3.68;80.78;100117.78;5027776;28;20473;-57
2022/12/14 05:38:08;;;;;;;22.80;11.33;;;;;;;-3.71;80.57;100123.13;5020871;28;20068;-58
2022/12/14 05:40:34;;;;;;;21.73;11.33;;;;;;;-3.73;80.97;100104.25;5029379;28;20044;-58
2022/12/14 05:43:07;;;;;;;20.90;11.30;;;;;;;-3.70;81.28;100114.44;5023131;28;20042;-57
2022/12/14 05:45:33;;;;;;;21.40;10.90;;;;;;;-3.69;81.39;100121.28;5033029;28;20035;-58
2022/12/14 05:47:58;;;;;;;24.93;11.97;;;;;;;-3.71;81.08;100117.13;5025750;28;20029;-57
2022/12/14 05:50:23;;;;;;;22.03;11.37;;;;;;;-3.73;81.30;100113.78;5021919;28;20519;-57
2022/12/14 05:52:54;;;;;;;21.90;11.40;;;;;;;-3.74;81.03;100115.53;5032717;28;20485;-57
2022/12/14 05:55:19;;;;;;;22.63;11.87;;;;;;;-3.75;81.41;100121.63;5023450;28;20036;-56
2022/12/14 05:57:45;;;;;;;22.13;11.17;;;;;;;-3.75;81.37;100115.63;5026520;28;20030;-56
2022/12/14 06:00:10;;;;;;;23.10;11.90;;;;;;;-3.77;81.62;100118.28;5024891;28;20401;-57
2022/12/14 06:02:36;;;;;;;21.97;11.90;;;;;;;-3.75;81.73;100115.63;5029184;28;20042;-59
2022/12/14 06:05:01;;;;;;;23.70;11.80;;;;;;;-3.73;81.41;100113.78;5027294;28;20497;-58
2022/12/14 06:07:26;;;;;;;21.47;11.37;;;;;;;-3.73;81.68;100100.81;5024808;28;20038;-57
2022/12/14 06:09:51;;;;;;;21.90;10.57;;;;;;;-3.71;81.72;100102.41;5021152;28;20045;-57
2022/12/14 06:12:17;;;;;;;23.37;11.63;;;;;;;-3.72;81.66;100100.72;5026558;28;20034;-57
2022/12/14 06:14:42;;;;;;;22.73;11.03;;;;;;;-3.71;81.76;100106.75;5026501;28;20086;-57
2022/12/14 06:17:07;;;;;;;23.87;11.57;;;;;;;-3.73;81.58;100099.06;5019278;28;20075;-58
2022/12/14 06:19:33;;;;;;;22.53;11.57;;;;;;;-3.71;82.00;100091.22;5022039;28;20119;-58
2022/12/14 06:21:58;;;;;;;23.43;12.70;;;;;;;-3.70;82.23;100098.06;5022129;28;20037;-58
2022/12/14 06:24:23;;;;;;;23.33;12.50;;;;;;;-3.70;82.13;100098.88;5014202;28;20351;-58
2022/12/14 06:26:48;;;;;;;22.87;12.10;;;;;;;-3.74;81.86;100097.41;5025723;28;20034;-57
2022/12/14 06:29:17;;;;;;;26.23;12.20;;;;;;;-3.76;81.55;100108.78;5017264;28;20026;-56
2022/12/14 06:31:42;;;;;;;23.70;11.63;;;;;;;-3.75;82.23;100097.50;5021104;28;20381;-56
2022/12/14 06:34:08;;;;;;;23.77;12.17;;;;;;;-3.72;82.46;100100.72;5020666;28;20037;-57
2022/12/14 06:36:36;;;;;;;23.70;12.07;;;;;;;-3.74;82.25;100092.22;5025614;28;20041;-57
2022/12/14 06:39:05;;;;;;;22.57;11.73;;;;;;;-3.73;82.11;100099.06;5020584;28;20025;-57
2022/12/14 06:41:31;;;;;;;23.97;11.70;;;;;;;-3.71;82.50;100102.41;5021243;28;20103;-56
2022/12/14 06:44:04;;;;;;;26.77;11.87;;;;;;;-3.71;82.33;100097.22;5025879;28;20504;-58
2022/12/14 06:46:32;;;;;;;22.63;11.48;;;;;;;-3.72;81.73;100105.91;5022159;28;20041;-57
2022/12/14 06:48:57;;;;;;;21.87;11.27;;;;;;;-3.78;82.09;100111.44;5018954;28;20551;-56
2022/12/14 06:51:24;;;;;;;22.33;12.00;;;;;;;-3.82;82.13;100109.94;5022299;28;20030;-57
2022/12/14 06:53:54;;;;;;;23.03;11.90;;;;;;;-3.86;82.87;100108.47;5027422;28;20025;-54
2022/12/14 06:56:22;;;;;;;25.57;11.97;;;;;;;-3.86;82.78;100108.47;5025971;28;20468;-57
2022/12/14 06:58:47;;;;;;;25.47;12.70;;;;;;;-3.83;82.65;100113.47;5022499;28;20057;-57
2022/12/14 07:01:16;;;;;;;25.20;12.60;;;;;;;-3.84;82.48;100111.78;5023687;28;20485;-57
2022/12/14 07:03:45;;;;;;;23.20;12.70;;;;;;;-3.81;82.96;100114.19;5023921;28;20057;-61
2022/12/14 07:06:10;;;;;;;26.10;12.57;;;;;;;-3.80;82.75;100113.31;5023577;28;20578;-57
2022/12/14 07:08:37;;;;;;;23.40;12.63;;;;;;;-3.83;83.07;100118.66;5021547;28;20029;-58
2022/12/14 07:11:09;;;;;;;22.83;11.83;;;;;;;-3.84;82.80;100112.63;5023559;28;20466;-57
2022/12/14 07:13:35;;;;;;;26.03;12.70;;;;;;;-3.86;82.80;100118.84;5022974;28;20034;-58
2022/12/14 07:16:02;;;;;;;27.50;12.93;;;;;;;-3.88;83.29;100110.28;5027205;28;20396;-58
2022/12/14 07:18:27;;;;;;;25.13;12.70;;;;;;;-3.86;83.33;100116.25;5023802;28;20095;-59
2022/12/14 07:21:09;;;;;;;22.73;11.87;;;;;;;-3.84;83.49;100116.97;5024708;28;20026;-60
2022/12/14 07:23:36;;;;;;;23.97;12.43;;;;;;;-3.82;83.30;100120.31;5021770;28;20124;-57
2022/12/14 07:26:04;;;;;;;23.77;12.70;;;;;;;-3.81;83.59;100121.97;5021633;28;20120;-57
2022/12/14 07:28:30;;;;;;;23.30;12.40;;;;;;;-3.81;83.79;100121.97;5025574;28;20107;-58
2022/12/14 07:30:57;;;;;;;25.00;12.77;;;;;;;-3.90;83.81;100101.78;5019396;28;20046;-59
2022/12/14 07:33:23;;;;;;;27.33;13.50;;;;;;;-3.85;83.69;100118.72;5019380;28;20733;-57
2022/12/14 07:35:49;;;;;;;25.07;12.93;;;;;;;-3.88;83.66;100123.25;5019980;28;20029;-59
2022/12/14 07:38:15;;;;;;;24.53;13.47;;;;;;;-3.88;83.77;100120.66;5021906;28;20553;-56
2022/12/14 07:40:41;;;;;;;26.00;13.87;;;;;;;-3.89;83.49;100124.16;5018954;28;20437;-59
2022/12/14 07:43:07;;;;;;;24.57;13.23;;;;;;;-3.88;84.01;100120.66;5021074;28;20126;-57
2022/12/14 07:45:32;;;;;;;25.00;13.13;;;;;;;-3.90;83.88;100118.13;5019953;28;20045;-59
2022/12/14 07:47:57;;;;;;;26.83;13.50;;;;;;;-3.90;83.82;100122.50;5020331;28;20033;-58
2022/12/14 07:50:23;;;;;;;24.10;12.33;;;;;;;-3.90;83.59;100122.50;5021222;28;20068;-57
2022/12/14 07:52:48;;;;;;;25.23;13.63;;;;;;;-3.95;84.18;100128.75;5018065;28;20044;-58
2022/12/14 07:55:13;;;;;;;24.40;12.90;;;;;;;-4.00;83.88;100125.59;5019539;28;20401;-58
2022/12/14 07:57:38;;;;;;;23.60;12.73;;;;;;;-4.03;84.27;100119.75;5023346;28;20038;-57
2022/12/14 08:00:04;;;;;;;25.17;12.60;;;;;;;-4.03;84.19;100123.19;5023483;28;20026;-58
2022/12/14 08:02:29;;;;;;;26.33;12.90;;;;;;;-4.06;84.15;100136.28;5019862;28;20535;-58
2022/12/14 08:04:55;;;;;;;26.43;12.60;;;;;;;-4.07;84.27;100134.63;5015816;28;20075;-58
2022/12/14 08:07:20;;;;;;;25.80;12.87;;;;;;;-4.10;84.28;100143.41;5022307;28;20520;-58
2022/12/14 08:09:46;;;;;;;26.73;13.40;;;;;;;-4.13;84.59;100138.41;5020568;28;20041;-58
2022/12/14 08:12:12;;;;;;;26.40;13.10;;;;;;;-4.19;84.37;100131.78;5026002;28;20037;-58
2022/12/14 08:14:37;;;;;;;25.77;13.10;;;;;;;-4.18;84.41;100133.44;5020115;28;20050;-57
2022/12/14 08:17:02;;;;;;;24.23;12.10;;;;;;;-4.20;84.57;100127.53;5019231;28;20033;-57
2022/12/14 08:19:27;;;;;;;25.30;12.93;;;;;;;-4.16;84.81;100137.75;5019771;28;20068;-58
2022/12/14 08:21:53;;;;;;;25.63;13.00;;;;;;;-4.21;84.77;100141.41;5017476;28;20025;-56
2022/12/14 08:24:18;;;;;;;28.50;12.97;;;;;;;-4.22;84.96;100150.09;5031181;28;20454;-57
2022/12/14 08:26:43;;;;;;;23.53;12.47;;;;;;;-4.25;85.41;100155.44;5019447;28;20040;-58
2022/12/14 08:29:11;;;;;;;27.10;12.93;;;;;;;-4.29;85.19;100153.94;5019106;28;20030;-59
2022/12/14 08:31:36;;;;;;;23.80;12.50;;;;;;;-4.29;85.26;100153.94;5025270;28;20397;-60
2022/12/14 08:34:02;;;;;;;26.17;12.73;;;;;;;-4.29;85.20;100156.53;5024342;28;20040;-59
2022/12/14 08:36:31;;;;;;;28.17;13.57;;;;;;;-4.34;85.25;100146.41;5030006;28;20057;-62
2022/12/14 08:38:59;;;;;;;25.73;12.67;;;;;;;-4.34;85.04;100145.59;5021469;28;20098;-59
2022/12/14 08:41:25;;;;;;;25.73;13.30;;;;;;;-4.34;85.13;100155.94;5023704;28;20045;-61
2022/12/14 08:43:52;;;;;;;28.07;13.30;;;;;;;-4.37;85.14;100156.94;5030554;28;20049;-61
2022/12/14 08:46:18;;;;;;;27.73;13.70;;;;;;;-4.37;84.88;100154.34;5026072;28;20029;-60
2022/12/14 08:48:44;;;;;;;25.70;12.67;;;;;;;-4.35;85.34;100154.25;5030336;28;20120;-61
2022/12/14 08:51:10;;;;;;;23.07;12.73;;;;;;;-4.37;85.37;100156.09;5025124;28;20049;-61
2022/12/14 08:53:37;;;;;;;30.63;13.83;;;;;;;-4.39;85.15;100148.41;5026653;28;20029;-61
2022/12/14 08:56:11;;;;;;;26.93;12.47;;;;;;;-4.38;85.03;100146.66;5023368;28;20040;-61
2022/12/14 08:58:38;;;;;;;25.67;13.00;;;;;;;-4.39;85.28;100153.56;5025521;28;20109;-61
2022/12/14 09:01:07;;;;;;;28.97;14.10;;;;;;;-4.39;85.28;100145.81;5028366;28;20099;-60
2022/12/14 09:03:33;;;;;;;26.07;13.67;;;;;;;-4.34;85.33;100150.75;5022105;28;20414;-60
2022/12/14 09:06:03;;;;;;;27.17;13.37;;;;;;;-4.39;85.63;100145.81;5019986;28;20083;-61
2022/12/14 09:08:29;;;;;;;25.73;13.70;;;;;;;-4.25;85.32;100157.19;5019342;28;20079;-60
2022/12/14 09:10:54;;;;;;;26.70;13.70;;;;;;;-4.21;85.30;100156.94;5019955;28;20033;-60
2022/12/14 09:13:19;;;;;;;24.03;13.33;;;;;;;-4.12;85.31;100159.94;5027283;28;20033;-60
2022/12/14 09:15:44;;;;;;;24.50;13.97;;;;;;;-4.05;85.20;100167.28;5015899;28;20108;-61
2022/12/14 09:18:10;;;;;;;27.47;13.13;;;;;;;-3.97;84.80;100166.03;5019983;28;20556;-60
2022/12/14 09:20:35;;;;;;;27.00;13.60;;;;;;;-3.94;84.45;100166.69;5024238;28;20490;-60
2022/12/14 09:23:00;;;;;;;26.87;13.83;;;;;;;-3.88;84.33;100167.28;5020727;28;20037;-61
2022/12/14 09:25:26;;;;;;;26.00;12.73;;;;;;;-3.84;84.23;100173.97;5023742;28;20053;-61
2022/12/14 09:27:51;;;;;;;24.83;12.83;;;;;;;-3.82;83.95;100178.16;5021294;28;20025;-57
2022/12/14 09:30:16;;;;;;;26.90;13.63;;;;;;;-3.80;83.89;100180.66;5022848;28;20034;-57
2022/12/14 09:32:45;;;;;;;26.80;13.40;;;;;;;-3.80;83.79;100176.31;5026363;28;20022;-58
2022/12/14 09:35:10;;;;;;;24.20;13.20;;;;;;;-3.78;83.83;100186.59;5027222;28;20112;-58
2022/12/14 09:37:37;;;;;;;28.13;12.40;;;;;;;-3.73;83.41;100175.97;5020295;28;20453;-57
2022/12/14 09:40:03;;;;;;;24.20;12.63;;;;;;;-3.68;83.70;100177.41;5027980;28;20049;-57
2022/12/14 09:42:47;;;;;;;24.77;13.27;;;;;;;-3.62;83.23;100177.97;5024176;28;20058;-56
2022/12/14 09:45:20;;;;;;;24.13;12.70;;;;;;;-3.58;83.50;100169.09;5013697;28;20504;-58
2022/12/14 09:47:59;;;;;;;26.53;12.87;;;;;;;-3.53;82.89;100167.06;5014005;28;20042;-59
2022/12/14 09:50:26;;;;;;;23.93;12.43;;;;;;;-3.49;83.00;100162.53;5011240;28;20029;-58
2022/12/14 09:52:54;;;;;;;23.40;12.20;;;;;;;-3.47;81.91;100161.53;5024970;28;20034;-58
2022/12/14 09:55:31;;;;;;;24.50;12.17;;;;;;;-3.42;82.07;100169.91;5015535;28;20041;-58
2022/12/14 09:58:04;;;;;;;23.73;12.33;;;;;;;-3.41;81.83;100175.94;5027353;28;20099;-58
2022/12/14 10:00:50;;;;;;;24.17;11.52;;;;;;;-3.35;81.46;100174.72;5027296;28;20028;-57
2022/12/14 10:04:02;;;;;;;24.53;12.33;;;;;;;-3.27;81.39;100182.88;5024911;28;20071;-61
2022/12/14 10:06:37;;;;;;;25.60;11.70;;;;;;;-3.31;81.23;100171.84;4994640;28;20407;-57
2022/12/14 10:09:12;;;;;;;23.57;11.83;;;;;;;-3.27;80.92;100175.97;5018228;28;20045;-58
2022/12/14 10:11:51;;;;;;;24.37;12.00;;;;;;;-3.25;80.52;100173.28;5028364;28;20033;-59
2022/12/14 10:14:16;;;;;;;25.97;11.13;;;;;;;-3.19;80.40;100164.31;5014484;28;20045;-59
2022/12/14 10:17:04;;;;;;;22.17;10.93;;;;;;;-3.15;80.33;100161.44;5026459;28;20665;-61
2022/12/14 10:19:52;;;;;;;23.77;11.97;;;;;;;-3.11;80.63;100162.13;5017721;28;20025;-57
2022/12/14 10:22:24;;;;;;;21.67;11.33;;;;;;;-3.09;80.58;100160.25;5021512;28;20116;-57
2022/12/14 10:25:05;;;;;;;21.98;10.95;;;;;;;-3.02;80.91;100160.72;5017239;28;20042;-57
2022/12/14 10:27:33;;;;;;;22.03;11.37;;;;;;;-2.99;80.20;100166.56;5018541;28;20071;-57
2022/12/14 10:30:00;;;;;;;20.80;11.13;;;;;;;-2.96;80.08;100170.75;5026191;28;20033;-57
2022/12/14 10:32:40;;;;;;;23.47;11.60;;;;;;;-2.94;80.08;100162.84;5024770;28;20041;-59
2022/12/14 10:35:16;;;;;;;20.63;10.67;;;;;;;-2.90;79.36;100170.41;5019673;28;20041;-58
2022/12/14 10:37:46;;;;;;;21.40;11.17;;;;;;;-2.88;79.50;100163.34;5021980;28;20120;-59
2022/12/14 10:40:31;;;;;;;23.13;10.93;;;;;;;-2.76;79.31;100173.91;5026168;28;20069;-57
2022/12/14 10:43:23;;;;;;;20.63;10.87;;;;;;;-2.77;79.22;100172.25;5023925;28;20073;-57
2022/12/14 10:46:07;;;;;;;21.30;10.90;;;;;;;-2.77;79.53;100175.66;5023414;28;20033;-57
2022/12/14 10:49:02;;;;;;;21.00;10.50;;;;;;;-2.68;79.21;100179.47;5024895;28;20050;-58
2022/12/14 10:51:36;;;;;;;19.10;9.83;;;;;;;-2.73;77.84;100173.72;5010759;28;20049;-56
2022/12/14 10:54:32;;;;;;;21.07;10.67;;;;;;;-2.68;79.21;100179.47;5022945;28;20060;-57
2022/12/14 10:56:58;;;;;;;18.97;10.47;;;;;;;-2.67;78.77;100170.75;5020323;28;20046;-59
2022/12/14 10:59:29;;;;;;;21.90;10.53;;;;;;;-2.63;78.37;100172.25;5013980;28;20029;-57
2022/12/14 11:02:02;;;;;;;19.17;10.20;;;;;;;-2.58;78.14;100174.56;5025836;28;20082;-56
2022/12/14 11:04:30;;;;;;;22.17;11.10;;;;;;;-2.55;78.40;100173.53;5016847;28;20033;-59
2022/12/14 11:06:58;;;;;;;21.57;10.63;;;;;;;-2.53;78.44;100167.31;5022609;28;20034;-57
2022/12/14 11:09:24;;;;;;;25.50;11.17;;;;;;;-2.47;78.65;100176.53;5023499;28;20040;-58
2022/12/14 11:12:15;;;;;;;21.83;11.13;;;;;;;-2.42;78.60;100179.66;5028673;28;20037;-57
2022/12/14 11:14:52;;;;;;;21.77;10.47;;;;;;;-2.44;77.38;100184.97;5025630;28;20037;-57
2022/12/14 11:17:40;;;;;;;20.27;10.60;;;;;;;-2.44;77.51;100176.31;5026537;28;20060;-58
2022/12/14 11:20:24;;;;;;;21.87;11.20;;;;;;;-2.44;76.96;100176.31;5026381;28;20033;-58
2022/12/14 11:22:57;;;;;;;21.07;11.00;;;;;;;-2.41;76.84;100170.97;5030409;28;20034;-58
2022/12/14 11:25:31;;;;;;;20.30;10.23;;;;;;;-2.38;77.03;100181.13;5022724;28;20052;-57
2022/12/14 11:28:31;;;;;;;20.13;10.57;;;;;;;-2.34;77.11;100177.44;5026182;28;20513;-57
2022/12/14 11:31:05;;;;;;;21.30;10.50;;;;;;;-2.33;77.01;100184.28;5024658;28;20044;-56
2022/12/14 11:33:53;;;;;;;20.27;10.53;;;;;;;-2.33;76.30;100181.69;5028350;28;20076;-57
2022/12/14 11:36:34;;;;;;;20.97;11.07;;;;;;;-2.31;76.77;100182.44;5022281;28;20492;-58